Terminal Aerodrome Forecast
Issued by NWS

Home | Current Version | Previous Version | Text Only | Print | Product List | Glossary On
Versions: 1 2 3 4 5 6 7 8 9 10 11 12 13 14 15 16 17 18
000
FTUS45 KRIW 261840 AAB
TAFJAC
TAF AMD
KJAC 261840Z 2619/2718 01008KT 6SM -RASN OVC016
     FM262000 VRB10G15KT 6SM -SHRA VCTS SCT015CB OVC025
      TEMPO 2620/2622 3SM TSRASN OVC015CB
     FM270200 01008KT P6SM VCSH SCT030 BKN050
     FM271000 03005KT P6SM VCFG SCT005 SCT060
     FM271500 35007KT P6SM SCT070 BKN150
      AMD LTD TO CLD VIS AND WIND=

USA.gov is the U.S. government's official web portal to all federal, state and local government web resources and services.